Station: Clare  

  Atmospheric Gas Attenuation - ITU Rec 676-11   ----------------- dB/100km -----------------
Date Time Temp RH % AH g/m3 Dew Point Wind Direction Speed kph Gust kph Barometer mB Rainfall Since 9am 24GHz 47GHz 76GHz 122GHz 134GHz 241GHz
04/05 06:40 10.6 95 9.27 9.8 15 19 1014.4 1.6 21.2 28.0 44.3 116.5 112.0 385.8
04/05 06:30 10.6 95 9.27 9.8 17 26 1014.2 1.6 21.2 28.0 44.3 116.5 112.0 385.7
04/05 06:20 10.6 95 9.27 9.8 17 22 1014.2 1.6 21.2 28.0 44.3 116.5 112.0 385.7
04/05 06:10 10.6 95 9.27 9.8 22 26 1014 1.6 21.2 28.0 44.3 116.5 112.0 385.6
04/05 06:00 10.6 95 9.27 9.8 19 32 1013.8 1.6 21.2 28.0 44.3 116.5 112.0 385.6
04/05 05:50 10.6 95 9.27 9.8 19 28 1013.9 1.6 21.2 28.0 44.3 116.5 112.0 385.6
04/05 05:40 10.6 95 9.27 9.8 20 26 1013.8 1.6 21.2 28.0 44.3 116.5 112.0 385.6
04/05 05:30 10.7 95 9.33 9.9 17 28 1013.6 1.6 21.3 28.1 44.5 117.0 112.7 388.0
04/05 05:20 10.6 95 9.27 9.8 19 24 1013.6 1.6 21.2 28.0 44.3 116.5 112.0 385.5
04/05 05:10 10.6 95 9.27 9.8 20 28 1013.5 1.6 21.2 28.0 44.3 116.4 112.0 385.5
04/05 05:00 10.6 94 9.18 9.7 20 33 1013.4 1.2 21.0 27.8 43.9 115.4 110.7 381.0
04/05 04:50 10.7 95 9.33 9.9 20 24 1013.3 1.2 21.3 28.1 44.5 117.0 112.6 387.9
04/05 04:40 10.6 95 9.27 9.8 20 30 1013.3 1.2 21.2 28.0 44.3 116.4 111.9 385.4
04/05 04:30 10.5 94 9.12 9.6 22 35 1013.2 1.2 20.9 27.8 43.7 114.8 110.0 378.5
04/05 04:20 10.5 94 9.12 9.6 24 32 1013.2 1.2 20.9 27.8 43.7 114.8 110.0 378.5
04/05 04:10 10.5 94 9.12 9.6 24 32 1013.1 1.2 20.9 27.8 43.7 114.8 109.9 378.4
04/05 04:00 10.5 93 9.02 9.4 22 37 1013.2 1.2 20.7 27.6 43.3 113.7 108.5 373.6
04/05 03:50 10.6 93 9.08 9.5 19 28 1013.2 1.2 20.8 27.7 43.5 114.2 109.3 376.0
04/05 03:40 10.6 93 9.08 9.5 24 30 1013.2 1.2 20.8 27.7 43.5 114.2 109.3 376.0
04/05 03:30 10.5 93 9.02 9.4 24 33 1013.2 1.2 20.7 27.6 43.3 113.7 108.5 373.6
04/05 03:20 10.6 93 9.08 9.5 22 32 1013.2 1.2 20.8 27.7 43.5 114.2 109.3 376.0
04/05 03:10 10.5 92 8.92 9.3 17 24 1013.2 1.2 20.4 27.4 42.8 112.6 107.1 368.7
04/05 03:00 10.5 92 8.92 9.3 19 33 1013.2 1.2 20.4 27.4 42.8 112.6 107.1 368.7
04/05 02:50 10.3 92 8.81 9.1 17 22 1013.3 1.2 20.2 27.3 42.5 111.6 105.9 364.3
04/05 02:40 10.3 92 8.81 9.1 22 32 1013.4 1.2 20.2 27.3 42.5 111.6 105.9 364.3
04/05 02:30 10.3 92 8.81 9.1 20 30 1013.4 1.2 20.2 27.3 42.5 111.6 105.9 364.3
04/05 02:20 10.2 91 8.66 8.8 17 20 1013.4 1.2 19.9 27.1 41.9 110.1 103.9 357.4
04/05 02:10 10.1 90 8.51 8.5 20 28 1013.5 1.2 19.6 26.9 41.3 108.5 102.0 350.6
04/05 02:00 10.1 90 8.51 8.5 19 28 1013.6 1.2 19.6 26.9 41.3 108.5 102.0 350.7
04/05 01:50 10.2 90 8.57 8.6 20 24 1013.6 1.2 19.7 26.9 41.5 109.1 102.7 353.1
04/05 01:40 10.1 91 8.61 8.7 15 19 1013.5 1.2 19.8 27.0 41.8 109.6 103.4 355.5
04/05 01:30 10.4 90 8.68 8.8 17 28 1013.5 1.2 19.9 27.1 41.9 110.0 104.0 357.5
04/05 01:20 10.5 89 8.63 8.8 17 22 1013.5 1.2 19.8 26.9 41.6 109.3 103.1 354.6
04/05 01:10 10.5 89 8.63 8.8 19 24 1013.6 1.2 19.8 26.9 41.6 109.3 103.1 354.7
04/05 01:00 10.5 89 8.63 8.8 15 24 1013.7 1.2 19.8 26.9 41.6 109.3 103.2 354.7
04/05 00:50 10.4 89 8.58 8.7 15 19 1013.9 1.2 19.7 26.9 41.5 108.9 102.6 352.8
04/05 00:40 10.6 88 8.59 8.7 15 20 1013.9 1.2 19.7 26.9 41.4 108.8 102.5 352.3
04/05 00:30 10.7 87 8.55 8.6 17 30 1013.9 1.2 19.6 26.8 41.2 108.2 101.8 350.0
04/05 00:20 10.7 86 8.45 8.5 17 20 1014 1.2 19.4 26.6 40.8 107.1 100.4 345.2
04/05 00:10 10.7 87 8.55 8.6 17 20 1014.1 1.2 19.6 26.8 41.2 108.2 101.8 350.0
04/05 00:00 10.7 86 8.45 8.5 17 28 1014.1 1.2 19.4 26.6 40.8 107.1 100.4 345.2
03/05 23:50 10.9 84 8.36 8.3 19 24 1014.2 1.2 19.2 26.4 40.3 105.8 99.0 340.1
03/05 23:40 11 84 8.41 8.4 17 28 1014.4 1.2 19.3 26.5 40.5 106.3 99.5 342.1
03/05 23:30 10.8 84 8.3 8.2 19 28 1014.3 1.2 19.1 26.3 40.1 105.3 98.3 337.7
03/05 23:20 10.9 83 8.26 8.1 17 24 1014.4 1.2 19.0 26.2 39.9 104.7 97.6 335.3
03/05 23:10 11 83 8.31 8.2 17 20 1014.5 1.2 19.1 26.3 40.1 105.2 98.2 337.3
03/05 23:00 11 82 8.21 8.1 20 33 1014.4 1.2 18.9 26.1 39.7 104.1 96.8 332.5
03/05 22:50 11 82 8.21 8 19 24 1014.6 1.2 18.9 26.1 39.7 104.1 96.8 332.6
03/05 22:40 11.1 81 8.16 8 19 22 1014.6 1.2 18.8 26.0 39.4 103.4 96.0 329.8
03/05 22:30 11.2 81 8.21 8.1 20 30 1014.5 1.2 18.9 26.1 39.6 103.8 96.6 331.7
03/05 22:20 11.3 80 8.16 8 19 32 1014.6 1.2 18.8 26.0 39.3 103.1 95.8 329.0
03/05 22:10 11.3 82 8.37 8.3 22 28 1014.6 1.2 19.2 26.3 40.2 105.4 98.6 338.9
03/05 22:00 11.3 83 8.47 8.5 19 32 1014.5 1.2 19.4 26.5 40.6 106.5 100.0 343.6
03/05 21:50 11.1 84 8.46 8.5 19 22 1014.4 1.2 19.4 26.5 40.7 106.7 100.1 344.0
03/05 21:40 11.2 83 8.41 8.4 13 17 1014.3 1.2 19.3 26.4 40.4 106.0 99.3 341.2
03/05 21:30 11.3 82 8.37 8.3 15 24 1014.3 1.2 19.2 26.3 40.2 105.4 98.6 338.8
03/05 21:20 11.4 82 8.42 8.4 15 20 1014.4 1.2 19.3 26.3 40.3 105.8 99.1 340.8
03/05 21:10 11.4 83 8.52 8.6 17 20 1014.4 1.2 19.5 26.5 40.7 106.9 100.5 345.5
03/05 21:00 11.5 84 8.68 8.9 17 30 1014.3 1.2 19.9 26.7 41.4 108.6 102.6 352.7
03/05 20:50 11.6 84 8.73 9 17 24 1014.4 1.2 20.0 26.8 41.5 109.0 103.1 354.7
03/05 20:40 11.6 84 8.73 9 15 20 1014.2 1.2 20.0 26.8 41.5 109.0 103.1 354.6
03/05 20:30 11.6 83 8.63 8.8 15 26 1014.1 1.2 19.8 26.6 41.1 107.8 101.7 349.8
03/05 20:20 11.7 86 9 9.4 15 17 1014.2 1.2 20.6 27.2 42.6 111.8 106.7 367.1
03/05 20:10 12 86 9.17 9.7 15 19 1014.1 1.2 20.9 27.4 43.1 113.3 108.6 373.9
03/05 20:00 12 85 9.06 9.6 13 19 1013.9 1.2 20.7 27.2 42.7 112.0 107.1 368.5
03/05 19:50 11.9 87 9.22 9.8 13 15 1013.9 1.2 21.0 27.5 43.4 114.0 109.4 376.8
03/05 19:40 11.8 88 9.26 9.9 11 15 1013.8 1.2 21.1 27.6 43.6 114.6 110.1 379.2
03/05 19:30 11.8 89 9.37 10 11 17 1013.7 1.2 21.3 27.8 44.1 115.8 111.6 384.5
03/05 19:20 11.9 88 9.32 10 13 17 1013.8 1.2 21.2 27.7 43.8 115.1 110.8 381.6
03/05 19:10 12 87 9.27 9.9 17 22 1013.8 1.2 21.1 27.6 43.5 114.4 110.0 378.7
03/05 19:00 11.7 90 9.41 10.1 11 17 1013.6 1.2 21.4 27.9 44.3 116.4 112.3 386.9
03/05 18:50 11.5 91 9.4 10.1 11 13 1013.4 1.2 21.4 27.9 44.3 116.6 112.5 387.4
03/05 18:40 11.5 90 9.3 9.9 11 15 1013.4 1.2 21.2 27.8 43.9 115.4 111.1 382.5
03/05 18:30 11.6 90 9.36 10 17 24 1013.3 1.2 21.3 27.8 44.1 115.9 111.7 384.9
03/05 18:20 11.8 88 9.26 9.9 20 22 1013.3 1.2 21.1 27.6 43.6 114.5 110.1 379.0
03/05 18:10 11.9 87 9.22 9.8 15 20 1013.2 1.2 21.0 27.5 43.3 113.9 109.3 376.5
03/05 18:00 12 85 9.06 9.6 19 28 1012.9 1.2 20.7 27.2 42.6 111.9 107.0 368.2
03/05 17:50 12.5 80 8.8 9.1 19 28 1012.9 0.6 20.1 26.6 41.3 108.3 102.7 353.5
03/05 17:40 12.9 77 8.68 9 24 32 1012.8 0.4 19.8 26.3 40.6 106.5 100.6 346.0
03/05 17:30 13.3 73 8.43 8.6 19 32 1012.4 0.2 19.3 25.7 39.3 103.2 96.7 332.5
03/05 17:20 13.9 69 8.27 8.3 24 30 1012.4 0.2 18.9 25.3 38.4 100.7 93.9 322.7
03/05 17:10 13.7 72 8.53 8.7 19 22 1012.4 0.2 19.4 25.8 39.5 103.7 97.5 335.5
03/05 17:00 13.1 78 8.9 9.4 9 19 1012.3 0.2 20.3 26.6 41.3 108.5 103.2 355.3
03/05 16:50 13.2 77 8.84 9.3 7 11 1012.6 0.2 20.1 26.4 41.0 107.8 102.3 352.1
03/05 16:40 13.9 72 8.63 8.9 13 22 1012.5 0 19.6 25.9 39.8 104.6 98.6 339.2
03/05 16:30 13.9 72 8.63 8.9 13 24 1012.3 0 19.7 25.9 39.8 104.5 98.6 339.2
03/05 16:20 13.8 72 8.58 8.8 15 20 1012.6 0 19.5 25.8 39.7 104.2 98.1 337.4
03/05 16:10 13.8 72 8.58 8.8 13 17 1012.6 0 19.5 25.8 39.7 104.2 98.1 337.4
03/05 16:00 13.9 69 8.27 8.3 22 37 1012.4 0 18.9 25.3 38.4 100.7 93.9 322.7
03/05 15:50 14.6 64 8.01 7.9 24 33 1012.4 0 18.3 24.7 37.0 97.1 89.7 308.2
03/05 15:40 14.6 64 8.01 7.9 15 20 1012.3 0 18.3 24.7 37.0 97.1 89.7 308.1
03/05 15:30 14.9 64 8.16 8.2 19 35 1012.2 0 18.6 24.8 37.5 98.3 91.3 313.6
03/05 15:20 14.6 64 8.01 7.9 20 28 1012.4 0 18.3 24.7 37.0 97.1 89.7 308.2
03/05 15:10 14.8 65 8.23 8.3 11 13 1012.4 0 18.8 25.0 37.8 99.2 92.3 317.2
03/05 15:00 14.3 66 8.11 8 22 37 1012.4 0 18.5 24.9 37.6 98.5 91.3 313.8
03/05 14:50 14.5 66 8.21 8.2 20 30 1012.4 0 18.7 25.0 37.9 99.3 92.4 317.5
03/05 14:40 14.5 65 8.08 8 22 30 1012.4 0 18.4 24.8 37.4 98.0 90.7 311.7
03/05 14:30 14.7 63 7.93 7.7 19 33 1012.3 0 18.1 24.5 36.7 96.2 88.6 304.2
03/05 14:20 14.7 60 7.55 7 19 24 1012.3 0 17.3 24.0 35.2 92.3 83.8 287.4
03/05 14:10 14.7 61 7.68 7.3 20 24 1012.3 0 17.6 24.2 35.7 93.6 85.4 293.1

Last Refresh: 04-May-2026 06:48:23

Bureau of Meteorology